createdAt,value
2022-08-17T00:00:42.926Z,7.80
2022-08-17T00:03:10.046Z,8.30
2022-08-17T00:05:42.540Z,6.60
2022-08-17T00:08:11.254Z,7.88
2022-08-17T00:10:40.905Z,6.85
2022-08-17T00:13:15.914Z,6.57
2022-08-17T00:15:44.869Z,6.97
2022-08-17T00:19:01.011Z,7.03
2022-08-17T00:21:04.067Z,6.85
2022-08-17T00:23:39.732Z,7.97
2022-08-17T00:26:38.782Z,7.28
2022-08-17T00:29:07.812Z,6.68
2022-08-17T00:31:36.655Z,6.88
2022-08-17T00:34:05.429Z,7.13
2022-08-17T00:36:33.855Z,9.15
2022-08-17T00:39:02.084Z,8.75
2022-08-17T00:41:31.535Z,8.48
2022-08-17T00:44:02.494Z,7.85
2022-08-17T00:46:33.682Z,7.93
2022-08-17T00:49:02.112Z,7.90
2022-08-17T00:51:34.644Z,8.85
2022-08-17T00:54:09.347Z,7.95
2022-08-17T00:56:42.927Z,9.05
2022-08-17T00:59:12.577Z,7.53
2022-08-17T01:01:41.820Z,8.15
2022-08-17T01:04:11.769Z,7.95
2022-08-17T01:06:41.198Z,10.02
2022-08-17T01:09:09.828Z,8.25
2022-08-17T01:11:40.600Z,8.93
2022-08-17T01:14:09.343Z,8.73
2022-08-17T01:16:38.428Z,8.13
2022-08-17T01:19:10.377Z,7.95
2022-08-17T01:21:45.128Z,9.50
2022-08-17T01:24:14.686Z,8.57
2022-08-17T01:26:44.141Z,9.68
2022-08-17T01:29:13.624Z,8.82
2022-08-17T01:31:45.541Z,8.85
2022-08-17T01:34:15.688Z,8.80
2022-08-17T01:36:45.938Z,9.27
2022-08-17T01:39:30.602Z,9.05
2022-08-17T01:42:04.966Z,9.38
2022-08-17T01:44:33.250Z,9.85
2022-08-17T01:47:01.682Z,9.65
2022-08-17T01:49:30.542Z,9.20
2022-08-17T01:52:07.040Z,9.32
2022-08-17T01:54:37.457Z,10.00
2022-08-17T01:57:06.069Z,10.00
2022-08-17T01:59:34.833Z,9.70
2022-08-17T02:02:04.836Z,9.88
2022-08-17T02:04:33.036Z,9.07
2022-08-17T02:07:01.098Z,10.68
2022-08-17T02:09:31.984Z,9.68
2022-08-17T02:12:37.991Z,9.30
2022-08-17T02:14:54.554Z,9.73
2022-08-17T02:17:22.563Z,9.00
2022-08-17T02:19:50.769Z,9.20
2022-08-17T02:22:19.364Z,9.65
2022-08-17T02:25:01.151Z,10.35
2022-08-17T02:27:33.177Z,9.20
2022-08-17T02:30:01.194Z,9.75
2022-08-17T02:32:29.425Z,9.70
2022-08-17T02:34:58.026Z,9.05
2022-08-17T02:37:26.848Z,9.40
2022-08-17T02:39:57.073Z,9.85
2022-08-17T02:42:31.526Z,9.25
2022-08-17T02:45:01.776Z,9.63
2022-08-17T02:47:29.799Z,11.52
2022-08-17T02:49:58.833Z,9.80
2022-08-17T02:52:42.387Z,9.95
2022-08-17T02:55:15.065Z,9.40
2022-08-17T02:57:43.659Z,9.07
2022-08-17T03:00:16.797Z,8.80
2022-08-17T03:02:46.415Z,9.15
2022-08-17T03:05:17.683Z,10.55
2022-08-17T03:07:45.821Z,9.70
2022-08-17T03:10:14.714Z,10.32
2022-08-17T03:15:15.469Z,9.77
2022-08-17T03:17:43.714Z,9.38
2022-08-17T03:20:13.132Z,9.68
2022-08-17T03:22:53.055Z,10.23
2022-08-17T03:25:25.231Z,10.38
2022-08-17T03:27:53.554Z,11.75
2022-08-17T03:30:23.521Z,10.05
2022-08-17T03:32:54.831Z,12.95
2022-08-17T03:35:26.547Z,11.57
2022-08-17T03:38:00.692Z,10.02
2022-08-17T03:40:36.978Z,13.23
2022-08-17T03:43:19.045Z,10.83
2022-08-17T03:46:19.284Z,10.77
2022-08-17T03:49:12.906Z,10.05
2022-08-17T03:51:58.924Z,11.77
2022-08-17T03:54:44.269Z,10.65
2022-08-17T03:57:12.767Z,9.45
2022-08-17T03:59:41.368Z,10.05
2022-08-17T04:02:16.302Z,12.25
2022-08-17T04:04:45.402Z,9.90
2022-08-17T04:07:13.412Z,9.90
2022-08-17T04:09:42.811Z,11.13
2022-08-17T04:12:10.809Z,10.15
2022-08-17T04:14:51.976Z,11.05
2022-08-17T04:17:25.682Z,9.85
2022-08-17T04:19:55.017Z,9.80
2022-08-17T04:22:32.312Z,10.57
2022-08-17T04:25:08.609Z,10.63
2022-08-17T04:27:37.056Z,11.15
2022-08-17T04:30:07.458Z,10.02
2022-08-17T04:33:02.273Z,9.40
2022-08-17T04:35:36.445Z,9.32
2022-08-17T04:38:05.133Z,9.52
2022-08-17T04:40:50.801Z,9.93
2022-08-17T04:43:22.552Z,10.85
2022-08-17T04:45:55.853Z,10.20
2022-08-17T04:48:35.471Z,9.23
2022-08-17T04:51:09.911Z,10.00
2022-08-17T04:53:39.284Z,10.43
2022-08-17T04:56:07.766Z,9.83
2022-08-17T04:58:40.264Z,9.80
2022-08-17T05:01:08.797Z,9.88
2022-08-17T05:03:38.365Z,9.70
2022-08-17T05:06:06.731Z,10.15
2022-08-17T05:08:34.882Z,9.95
2022-08-17T05:11:03.165Z,9.55
2022-08-17T05:13:31.290Z,10.63
2022-08-17T05:16:02.136Z,10.57
2022-08-17T05:18:33.025Z,10.18
2022-08-17T05:21:03.768Z,9.88
2022-08-17T05:23:42.025Z,10.30
2022-08-17T05:26:25.840Z,11.38
2022-08-17T05:28:59.596Z,10.80
2022-08-17T05:31:29.787Z,11.07
2022-08-17T05:33:57.994Z,12.93
2022-08-17T05:36:42.985Z,12.55
2022-08-17T05:39:14.399Z,12.32
2022-08-17T05:41:45.732Z,12.30
2022-08-17T05:44:13.738Z,13.03
2022-08-17T05:46:44.617Z,10.55
2022-08-17T05:49:16.050Z,11.35
2022-08-17T05:52:21.778Z,12.63
2022-08-17T05:55:03.534Z,11.00
2022-08-17T05:57:44.799Z,11.27
2022-08-17T06:00:26.450Z,11.63
2022-08-17T06:03:16.529Z,10.57
2022-08-17T06:05:55.418Z,11.30
2022-08-17T06:08:33.994Z,13.23
2022-08-17T06:11:19.854Z,12.15
2022-08-17T06:14:02.511Z,12.68
2022-08-17T06:16:36.728Z,13.65
2022-08-17T06:19:11.102Z,12.65
2022-08-17T06:21:43.479Z,11.82
2022-08-17T06:24:24.460Z,11.27
2022-08-17T06:26:55.697Z,13.65
2022-08-17T06:29:35.369Z,12.45
2022-08-17T06:34:33.901Z,13.57
2022-08-17T06:37:19.698Z,11.63
2022-08-17T06:40:01.683Z,11.93
2022-08-17T06:43:02.398Z,12.55
2022-08-17T06:45:32.609Z,11.52
2022-08-17T06:48:08.563Z,11.52
2022-08-17T06:50:39.989Z,12.00
2022-08-17T06:53:17.830Z,16.55
2022-08-17T06:55:56.981Z,12.38
2022-08-17T06:58:29.760Z,12.50
2022-08-17T07:01:04.005Z,11.57
2022-08-17T07:03:38.028Z,13.52
2022-08-17T07:06:13.185Z,12.38
2022-08-17T07:08:50.440Z,11.55
2022-08-17T07:11:27.240Z,12.45
2022-08-17T07:14:04.729Z,11.50
2022-08-17T07:16:38.464Z,11.40
2022-08-17T07:19:07.370Z,11.20
2022-08-17T07:21:47.821Z,11.63
2022-08-17T07:24:37.377Z,12.63
2022-08-17T07:29:48.084Z,11.77
2022-08-17T07:32:19.408Z,11.52
2022-08-17T07:35:11.201Z,11.52
2022-08-17T07:37:41.650Z,11.07
2022-08-17T07:40:33.439Z,10.00
2022-08-17T07:43:11.449Z,9.60
2022-08-17T07:46:15.588Z,12.65
2022-08-17T07:48:48.558Z,9.43
2022-08-17T07:51:32.188Z,12.25
2022-08-17T07:54:14.597Z,8.48
2022-08-17T07:56:47.076Z,10.07
2022-08-17T07:59:23.844Z,13.68
2022-08-17T08:02:30.135Z,9.15
2022-08-17T08:05:07.205Z,9.45
2022-08-17T08:07:42.679Z,8.85
2022-08-17T08:10:15.443Z,10.10
2022-08-17T08:12:46.130Z,8.65
2022-08-17T08:15:19.426Z,8.90
2022-08-17T08:17:53.155Z,11.63
2022-08-17T08:20:51.338Z,9.50
2022-08-17T08:23:32.638Z,13.30
2022-08-17T08:26:18.641Z,9.65
2022-08-17T08:28:58.014Z,10.25
2022-08-17T08:31:42.175Z,8.98
2022-08-17T08:34:44.535Z,8.43
2022-08-17T08:37:25.016Z,9.80
2022-08-17T08:39:59.658Z,10.93
2022-08-17T08:42:33.420Z,7.88
2022-08-17T08:45:11.087Z,7.15
2022-08-17T08:47:57.392Z,7.55
2022-08-17T08:50:43.943Z,7.28
2022-08-17T08:53:23.592Z,7.68
2022-08-17T08:55:57.185Z,7.25
2022-08-17T08:58:42.068Z,7.63
2022-08-17T09:01:19.909Z,5.80
2022-08-17T09:04:23.376Z,7.38
2022-08-17T09:07:06.100Z,9.02
2022-08-17T09:09:43.256Z,6.20
2022-08-17T09:12:17.943Z,6.22
2022-08-17T09:14:57.058Z,8.27
2022-08-17T09:17:35.605Z,8.43
2022-08-17T09:20:27.174Z,6.00
2022-08-17T09:23:03.919Z,6.95
2022-08-17T09:25:35.643Z,5.45
2022-08-17T09:28:07.082Z,7.25
2022-08-17T09:30:42.242Z,6.60
2022-08-17T09:33:15.963Z,5.57
2022-08-17T09:35:50.601Z,6.03
2022-08-17T09:38:30.430Z,4.70
2022-08-17T09:41:10.004Z,8.77
2022-08-17T09:43:44.367Z,6.35
2022-08-17T09:46:18.216Z,7.88
2022-08-17T09:48:50.411Z,8.95
2022-08-17T09:51:25.636Z,5.95
2022-08-17T09:53:53.685Z,3.90
2022-08-17T09:56:35.060Z,4.88
2022-08-17T09:59:23.549Z,10.02
2022-08-17T10:02:02.569Z,4.65
2022-08-17T10:04:48.891Z,6.22
2022-08-17T10:07:28.930Z,4.95
2022-08-17T10:10:13.567Z,7.82
2022-08-17T10:12:53.153Z,5.82
2022-08-17T10:15:36.715Z,4.63
2022-08-17T10:18:30.567Z,6.30
2022-08-17T10:21:23.679Z,8.35
2022-08-17T10:24:14.579Z,6.13
2022-08-17T10:26:56.864Z,4.93
2022-08-17T10:29:29.739Z,5.57
2022-08-17T10:32:14.559Z,6.90
2022-08-17T10:35:09.515Z,7.47
2022-08-17T10:38:27.100Z,5.82
2022-08-17T10:41:00.916Z,6.68
2022-08-17T10:43:42.636Z,3.65
2022-08-17T10:46:31.808Z,3.95
2022-08-17T10:49:33.249Z,3.83
2022-08-17T10:52:03.576Z,4.03
2022-08-17T10:54:49.257Z,4.75
2022-08-17T10:57:40.063Z,3.83
2022-08-17T11:00:16.090Z,7.18
2022-08-17T11:02:49.902Z,4.88
2022-08-17T11:05:44.140Z,6.65
2022-08-17T11:08:38.690Z,5.93
2022-08-17T11:11:24.404Z,3.55
2022-08-17T11:14:08.892Z,6.40
2022-08-17T11:16:50.260Z,5.35
2022-08-17T11:20:10.391Z,3.10
2022-08-17T11:23:04.541Z,5.78
2022-08-17T11:25:39.605Z,4.85
2022-08-17T11:28:14.665Z,3.97
2022-08-17T11:30:49.168Z,3.03
2022-08-17T11:33:56.227Z,4.43
2022-08-17T11:36:47.882Z,5.63
2022-08-17T11:39:42.357Z,4.28
2022-08-17T11:42:27.731Z,4.80
2022-08-17T11:44:59.828Z,2.42
2022-08-17T11:48:23.612Z,4.57
2022-08-17T11:51:14.244Z,3.65
2022-08-17T11:54:32.812Z,3.83
2022-08-17T11:56:56.933Z,5.50
2022-08-17T11:59:58.651Z,3.08
2022-08-17T12:02:48.137Z,4.45
2022-08-17T12:05:37.859Z,4.72
2022-08-17T12:10:57.802Z,3.00
2022-08-17T12:13:27.425Z,2.80
2022-08-17T12:16:00.446Z,3.03
2022-08-17T12:18:35.491Z,2.93
2022-08-17T12:21:15.464Z,3.42
2022-08-17T12:23:55.388Z,3.58
2022-08-17T12:26:30.210Z,2.95
2022-08-17T12:29:01.846Z,4.68
2022-08-17T12:31:35.555Z,3.20
2022-08-17T12:34:06.095Z,2.72
2022-08-17T12:36:34.839Z,2.92
2022-08-17T12:39:13.899Z,3.20
2022-08-17T12:41:47.961Z,2.70
2022-08-17T12:44:24.227Z,3.13
2022-08-17T12:46:56.763Z,4.40
2022-08-17T12:49:30.950Z,5.50
2022-08-17T12:52:08.938Z,4.05
2022-08-17T12:54:43.428Z,3.60
2022-08-17T12:57:15.319Z,5.30
2022-08-17T12:59:48.594Z,4.18
2022-08-17T13:02:28.336Z,4.45
2022-08-17T13:05:01.518Z,4.28
2022-08-17T13:07:35.079Z,4.43
2022-08-17T13:10:05.459Z,3.85
2022-08-17T13:12:36.387Z,3.28
2022-08-17T13:15:05.233Z,4.35
2022-08-17T13:17:36.606Z,4.22
2022-08-17T13:20:15.852Z,5.68
2022-08-17T13:22:45.120Z,6.78
2022-08-17T13:25:17.715Z,4.68
2022-08-17T13:27:47.413Z,3.83
2022-08-17T13:30:23.845Z,4.03
2022-08-17T13:32:53.881Z,3.28
2022-08-17T13:35:40.339Z,4.68
2022-08-17T13:38:11.177Z,3.33
2022-08-17T13:40:44.367Z,4.03
2022-08-17T13:43:13.327Z,4.45
2022-08-17T13:45:50.825Z,4.93
2022-08-17T13:48:27.678Z,4.40
2022-08-17T13:51:23.938Z,2.90
2022-08-17T13:53:59.297Z,4.03
2022-08-17T13:56:39.364Z,3.42
2022-08-17T13:59:12.347Z,5.53
2022-08-17T14:01:43.482Z,6.60
2022-08-17T14:04:14.354Z,4.40
2022-08-17T14:06:53.172Z,6.72
2022-08-17T14:09:26.474Z,5.80
2022-08-17T14:11:56.920Z,5.53
2022-08-17T14:14:29.282Z,3.55
2022-08-17T14:16:58.199Z,5.43
2022-08-17T14:19:27.258Z,5.35
2022-08-17T14:21:58.823Z,4.60
2022-08-17T14:24:29.908Z,3.50
2022-08-17T14:26:59.156Z,4.80
2022-08-17T14:29:29.336Z,4.00
2022-08-17T14:31:59.122Z,3.47
2022-08-17T14:34:27.226Z,4.15
2022-08-17T14:36:57.576Z,4.32
2022-08-17T14:39:27.008Z,4.95
2022-08-17T14:41:58.333Z,4.88
2022-08-17T14:44:27.256Z,6.38
2022-08-17T14:46:55.222Z,4.57
2022-08-17T14:49:26.811Z,6.63
2022-08-17T14:51:57.387Z,4.03
2022-08-17T14:54:33.910Z,4.43
2022-08-17T14:57:22.611Z,4.82
2022-08-17T14:59:54.663Z,3.80
2022-08-17T15:02:29.840Z,6.80
2022-08-17T15:05:03.270Z,8.13
2022-08-17T15:07:32.905Z,4.55
2022-08-17T15:10:02.156Z,5.07
2022-08-17T15:12:33.588Z,5.10
2022-08-17T15:15:04.577Z,6.18
2022-08-17T15:17:44.397Z,5.60
2022-08-17T15:20:17.957Z,3.75
2022-08-17T15:22:50.058Z,5.75
2022-08-17T15:25:19.588Z,3.35
2022-08-17T15:27:47.752Z,4.32
2022-08-17T15:30:16.679Z,3.92
2022-08-17T15:32:50.779Z,3.05
2022-08-17T15:35:22.097Z,3.15
2022-08-17T15:38:07.990Z,2.80
2022-08-17T15:40:43.193Z,3.42
2022-08-17T15:43:13.985Z,3.00
2022-08-17T15:45:42.254Z,2.67
2022-08-17T15:48:11.344Z,3.28
2022-08-17T15:50:39.715Z,3.67
2022-08-17T15:53:09.675Z,3.77
2022-08-17T15:55:38.664Z,4.35
2022-08-17T15:58:07.186Z,2.92
2022-08-17T16:00:49.368Z,3.03
2022-08-17T16:04:01.240Z,3.25
2022-08-17T16:06:11.007Z,3.53
2022-08-17T16:08:43.622Z,5.78
2022-08-17T16:11:12.906Z,2.97
2022-08-17T16:13:42.693Z,4.18
2022-08-17T16:16:23.649Z,3.00
2022-08-17T16:18:54.538Z,3.83
2022-08-17T16:21:29.623Z,3.60
2022-08-17T16:24:03.556Z,2.90
2022-08-17T16:26:33.183Z,2.55
2022-08-17T16:29:07.171Z,3.25
2022-08-17T16:31:37.958Z,3.75
2022-08-17T16:34:17.549Z,3.42
2022-08-17T16:36:53.700Z,7.88
2022-08-17T16:39:30.763Z,3.45
2022-08-17T16:42:01.497Z,3.13
2022-08-17T16:44:32.012Z,3.63
2022-08-17T16:47:00.991Z,3.30
2022-08-17T16:49:37.344Z,3.25
2022-08-17T16:52:11.025Z,3.20
2022-08-17T16:54:46.202Z,3.75
2022-08-17T16:57:15.951Z,3.95
2022-08-17T16:59:48.050Z,3.45
2022-08-17T17:02:16.856Z,3.38
2022-08-17T17:04:51.958Z,2.90
2022-08-17T17:07:38.890Z,2.97
2022-08-17T17:10:11.642Z,3.90
2022-08-17T17:13:02.208Z,4.72
2022-08-17T17:15:46.755Z,4.07
2022-08-17T17:18:16.532Z,3.72
2022-08-17T17:20:50.453Z,3.45
2022-08-17T17:23:37.664Z,3.13
2022-08-17T17:26:25.117Z,3.63
2022-08-17T17:29:02.910Z,3.40
2022-08-17T17:31:38.298Z,3.13
2022-08-17T17:34:09.299Z,3.08
2022-08-17T17:36:41.588Z,3.33
2022-08-17T17:39:14.439Z,3.67
2022-08-17T17:41:50.075Z,3.15
2022-08-17T17:44:25.500Z,3.60
2022-08-17T17:46:57.855Z,3.85
2022-08-17T17:49:31.462Z,4.22
2022-08-17T17:52:12.293Z,3.40
2022-08-17T17:54:55.048Z,4.40
2022-08-17T18:00:11.094Z,3.85
2022-08-17T18:02:55.482Z,3.67
2022-08-17T18:05:48.435Z,5.00
2022-08-17T18:08:37.191Z,4.40
2022-08-17T18:11:34.941Z,5.07
2022-08-17T18:14:18.990Z,5.22
2022-08-17T18:16:48.123Z,5.75
2022-08-17T18:19:20.033Z,3.67
2022-08-17T18:21:53.313Z,4.05
2022-08-17T18:24:31.602Z,4.55
2022-08-17T18:27:02.742Z,3.50
2022-08-17T18:29:44.902Z,4.90
2022-08-17T18:32:24.313Z,3.38
2022-08-17T18:34:55.214Z,4.47
2022-08-17T18:37:36.943Z,5.30
2022-08-17T18:40:29.298Z,6.53
2022-08-17T18:43:03.337Z,5.25
2022-08-17T18:45:40.855Z,6.25
2022-08-17T18:48:26.829Z,10.82
2022-08-17T18:50:58.406Z,10.32
2022-08-17T18:53:34.318Z,10.48
2022-08-17T18:56:24.169Z,11.07
2022-08-17T19:01:41.486Z,14.20
2022-08-17T19:04:28.543Z,13.13
2022-08-17T19:07:10.684Z,16.13
2022-08-17T19:09:44.235Z,12.82
2022-08-17T19:12:27.348Z,13.75
2022-08-17T19:14:57.559Z,12.98
2022-08-17T19:17:33.299Z,14.35
2022-08-17T19:20:06.370Z,16.42
2022-08-17T19:22:55.703Z,17.25
2022-08-17T19:25:33.558Z,17.42
2022-08-17T19:28:21.917Z,17.95
2022-08-17T19:30:55.829Z,18.52
2022-08-17T19:33:25.548Z,18.90
2022-08-17T19:36:03.574Z,21.05
2022-08-17T19:38:43.107Z,21.92
2022-08-17T19:44:09.083Z,21.55
2022-08-17T19:47:01.007Z,19.98
2022-08-17T19:49:45.623Z,20.55
2022-08-17T19:52:31.612Z,20.63
2022-08-17T19:55:07.464Z,20.17
2022-08-17T19:57:44.950Z,21.13
2022-08-17T20:00:16.722Z,25.42
2022-08-17T20:02:55.525Z,26.30
2022-08-17T20:05:30.166Z,25.83
2022-08-17T20:08:04.992Z,26.02
2022-08-17T20:10:45.235Z,26.20
2022-08-17T20:13:19.846Z,25.65
2022-08-17T20:16:02.422Z,24.15
2022-08-17T20:18:37.729Z,26.27
2022-08-17T20:21:20.036Z,24.45
2022-08-17T20:23:54.226Z,26.13
2022-08-17T20:26:27.311Z,26.95
2022-08-17T20:29:29.518Z,28.73
2022-08-17T20:32:25.248Z,27.90
2022-08-17T20:35:04.491Z,27.30
2022-08-17T20:37:36.278Z,26.75
2022-08-17T20:40:33.484Z,26.67
2022-08-17T20:43:45.634Z,29.35
2022-08-17T20:46:26.838Z,27.58
2022-08-17T20:48:57.929Z,28.55
2022-08-17T20:51:30.487Z,29.45
2022-08-17T20:54:24.077Z,29.98
2022-08-17T20:56:57.405Z,32.60
2022-08-17T21:00:15.383Z,30.40
2022-08-17T21:02:45.468Z,31.83
2022-08-17T21:05:38.840Z,31.02
2022-08-17T21:08:15.986Z,31.65
2022-08-17T21:10:47.359Z,33.40
2022-08-17T21:13:57.866Z,34.40
2022-08-17T21:16:38.819Z,33.95
2022-08-17T21:19:31.112Z,34.92
2022-08-17T21:22:12.419Z,35.95
2022-08-17T21:24:54.000Z,36.42
2022-08-17T21:27:35.934Z,37.10
2022-08-17T21:30:44.474Z,38.95
2022-08-17T21:33:20.865Z,37.13
2022-08-17T21:35:51.866Z,38.28
2022-08-17T21:38:24.222Z,36.35
2022-08-17T21:40:54.146Z,37.30
2022-08-17T21:43:29.340Z,36.92
2022-08-17T21:46:04.455Z,36.90
2022-08-17T21:48:41.453Z,37.00
2022-08-17T21:51:12.093Z,39.42
2022-08-17T21:53:46.341Z,38.17
2022-08-17T21:56:23.295Z,45.47
2022-08-17T21:59:00.559Z,41.17
2022-08-17T22:01:31.694Z,43.17
2022-08-17T22:04:04.380Z,41.58
2022-08-17T22:06:37.514Z,44.05
2022-08-17T22:09:16.318Z,46.33
2022-08-17T22:12:04.489Z,46.57
2022-08-17T22:14:51.543Z,45.93
2022-08-17T22:17:23.674Z,46.40
2022-08-17T22:19:54.106Z,53.88
2022-08-17T22:22:32.970Z,45.97
2022-08-17T22:25:03.565Z,46.50
2022-08-17T22:27:55.467Z,49.08
2022-08-17T22:30:32.568Z,48.65
2022-08-17T22:33:02.262Z,53.85
2022-08-17T22:38:31.623Z,50.40
2022-08-17T22:41:25.624Z,51.63
2022-08-17T22:43:57.396Z,48.42
2022-08-17T22:46:29.161Z,52.90
2022-08-17T22:49:00.354Z,50.15
2022-08-17T22:51:31.295Z,47.85
2022-08-17T22:54:20.677Z,50.22
2022-08-17T22:57:11.476Z,47.30
2022-08-17T22:59:47.674Z,49.15
2022-08-17T23:02:21.750Z,49.00
2022-08-17T23:04:52.433Z,47.85
2022-08-17T23:07:21.987Z,48.00
2022-08-17T23:09:52.129Z,48.83
2022-08-17T23:12:27.147Z,51.05
2022-08-17T23:15:01.616Z,50.42
2022-08-17T23:17:37.065Z,47.47
2022-08-17T23:20:17.542Z,51.28
2022-08-17T23:22:52.194Z,50.03
2022-08-17T23:25:27.963Z,49.72
2022-08-17T23:27:57.431Z,47.13
2022-08-17T23:30:31.166Z,52.15
2022-08-17T23:33:04.458Z,55.70
2022-08-17T23:35:38.946Z,46.88
2022-08-17T23:38:09.382Z,53.45
2022-08-17T23:40:37.758Z,48.72
2022-08-17T23:43:17.365Z,50.83
2022-08-17T23:45:53.320Z,50.03
2022-08-17T23:48:28.581Z,47.72
2022-08-17T23:51:08.671Z,52.97
2022-08-17T23:53:42.747Z,47.83
2022-08-17T23:56:12.144Z,50.50
2022-08-17T23:58:42.199Z,52.17
